Time;durP1;ratioP1;P1;durP2;ratioP2;P2;SDS_P1;SDS_P2;PMS_P1;PMS_P2;Temp;Humidity;BMP_temperature;BMP_pressure;BME280_temperature;BME280_humidity;BME280_pressure;Samples;Min_cycle;Max_cycle;Signal;HPM_P1;HPM_P2
2023/04/24 00:00:56;;;;;;;;;;;18.40;66.40;;;;;;4932301;29;905;-72
2023/04/24 00:03:24;;;;;;;;;;;18.30;66.40;;;;;;4933280;29;1371;-73
2023/04/24 00:05:50;;;;;;;;;;;18.30;66.40;;;;;;4947756;29;1953;-73
2023/04/24 00:08:16;;;;;;;;;;;18.30;66.40;;;;;;4933400;29;849;-72
2023/04/24 00:10:42;;;;;;;;;;;18.30;66.40;;;;;;4948155;29;1229;-73
2023/04/24 00:13:07;;;;;;;;;;;18.30;66.40;;;;;;4933139;29;936;-73
2023/04/24 00:15:33;;;;;;;;;;;18.30;66.40;;;;;;4947772;29;1188;-73
2023/04/24 00:17:58;;;;;;;;;;;18.30;66.40;;;;;;4933297;29;885;-73
2023/04/24 00:20:23;;;;;;;;;;;18.30;66.40;;;;;;4933211;29;1020;-73
2023/04/24 00:22:49;;;;;;;;;;;18.30;66.40;;;;;;4947841;29;835;-73
2023/04/24 00:25:14;;;;;;;;;;;18.30;66.50;;;;;;4947854;29;1906;-73
2023/04/24 00:27:40;;;;;;;;;;;18.30;66.50;;;;;;4933112;29;839;-72
2023/04/24 00:30:06;;;;;;;;;;;18.30;66.50;;;;;;4947825;29;912;-73
2023/04/24 00:32:31;;;;;;;;;;;18.30;66.50;;;;;;4933269;29;1077;-73
2023/04/24 00:34:57;;;;;;;;;;;18.30;66.50;;;;;;4931709;29;1415;-73
2023/04/24 00:37:22;;;;;;;;;;;18.30;66.50;;;;;;4933085;29;897;-73
2023/04/24 00:39:47;;;;;;;;;;;18.30;66.50;;;;;;4933151;29;1062;-73
2023/04/24 00:42:13;;;;;;;;;;;18.30;66.50;;;;;;4933150;29;832;-73
2023/04/24 00:44:38;;;;;;;;;;;18.30;66.50;;;;;;4932628;29;1898;-73
2023/04/24 00:47:04;;;;;;;;;;;18.30;66.60;;;;;;4934483;29;968;-73
2023/04/24 00:49:30;;;;;;;;;;;18.30;67.30;;;;;;4937332;29;909;-72
2023/04/24 00:51:56;;;;;;;;;;;18.30;66.50;;;;;;4937424;29;921;-73
2023/04/24 00:54:22;;;;;;;;;;;18.30;66.60;;;;;;4937492;29;1276;-73
2023/04/24 00:56:47;;;;;;;;;;;18.30;66.50;;;;;;4938406;29;885;-72
2023/04/24 00:59:13;;;;;;;;;;;18.30;66.60;;;;;;4937423;29;843;-73
2023/04/24 01:01:41;;;;;;;;;;;18.30;66.60;;;;;;4936946;29;809;-73
2023/04/24 01:04:07;;;;;;;;;;;18.30;66.60;;;;;;4949303;29;1962;-73
2023/04/24 01:06:32;;;;;;;;;;;18.30;66.60;;;;;;4935793;29;1153;-73
2023/04/24 01:08:58;;;;;;;;;;;18.30;66.60;;;;;;4951859;29;1517;-73
2023/04/24 01:11:24;;;;;;;;;;;18.30;66.60;;;;;;4935585;29;873;-72
2023/04/24 01:13:50;;;;;;;;;;;18.30;66.70;;;;;;4950758;29;1364;-73
2023/04/24 01:16:17;;;;;;;;;;;18.30;66.60;;;;;;4936734;29;919;-73
2023/04/24 01:18:43;;;;;;;;;;;18.30;66.60;;;;;;4936490;28;939;-73
2023/04/24 01:21:08;;;;;;;;;;;18.30;66.70;;;;;;4935567;29;856;-72
2023/04/24 01:23:34;;;;;;;;;;;18.30;66.60;;;;;;4935329;29;1233;-72
2023/04/24 01:26:00;;;;;;;;;;;18.30;66.70;;;;;;4935133;29;1910;-73
2023/04/24 01:28:25;;;;;;;;;;;18.30;66.70;;;;;;4936499;29;963;-73
2023/04/24 01:30:51;;;;;;;;;;;18.30;66.70;;;;;;4936328;29;875;-73
2023/04/24 01:33:16;;;;;;;;;;;18.30;66.70;;;;;;4951191;29;1391;-73
2023/04/24 01:35:42;;;;;;;;;;;18.30;66.70;;;;;;4934940;29;1400;-73
2023/04/24 01:38:07;;;;;;;;;;;18.30;66.70;;;;;;4936352;29;855;-73
2023/04/24 01:40:33;;;;;;;;;;;18.30;66.70;;;;;;4936334;29;935;-72
2023/04/24 01:42:58;;;;;;;;;;;18.30;66.70;;;;;;4935891;29;870;-73
2023/04/24 01:45:24;;;;;;;;;;;18.30;66.80;;;;;;4950961;29;1902;-73
2023/04/24 01:47:49;;;;;;;;;;;18.30;66.70;;;;;;4951103;29;1177;-72
2023/04/24 01:50:15;;;;;;;;;;;18.30;66.70;;;;;;4951289;29;1190;-73
2023/04/24 01:52:40;;;;;;;;;;;18.30;66.80;;;;;;4935889;29;844;-73
2023/04/24 01:55:07;;;;;;;;;;;18.30;66.80;;;;;;4936106;29;1307;-73
2023/04/24 01:57:32;;;;;;;;;;;18.20;66.70;;;;;;4935363;29;836;-73
2023/04/24 01:59:57;;;;;;;;;;;18.30;66.80;;;;;;4933593;29;1619;-73
2023/04/24 02:02:29;;;;;;;;;;;18.30;66.80;;;;;;4935658;29;861;-73
2023/04/24 02:04:55;;;;;;;;;;;18.30;66.80;;;;;;4935463;29;1973;-73
2023/04/24 02:07:20;;;;;;;;;;;18.20;66.80;;;;;;4950257;29;869;-74
2023/04/24 02:09:46;;;;;;;;;;;18.20;66.80;;;;;;4950474;29;1273;-73
2023/04/24 02:12:11;;;;;;;;;;;18.30;66.80;;;;;;4935399;29;919;-73
2023/04/24 02:14:37;;;;;;;;;;;18.20;66.80;;;;;;4934262;29;1274;-72
2023/04/24 02:17:02;;;;;;;;;;;18.20;66.80;;;;;;4935501;29;1046;-74
2023/04/24 02:19:28;;;;;;;;;;;18.20;66.80;;;;;;4935495;29;879;-73
2023/04/24 02:21:53;;;;;;;;;;;18.20;66.80;;;;;;4935434;29;1054;-73
2023/04/24 02:24:19;;;;;;;;;;;18.20;66.80;;;;;;4935099;29;1910;-73
2023/04/24 02:26:44;;;;;;;;;;;18.30;66.80;;;;;;4935136;29;813;-73
2023/04/24 02:29:10;;;;;;;;;;;18.20;66.80;;;;;;4923835;29;1355;-73
2023/04/24 02:31:35;;;;;;;;;;;18.20;66.80;;;;;;4935185;29;844;-72
2023/04/24 02:34:04;;;;;;;;;;;18.20;66.80;;;;;;4934950;29;1409;-74
2023/04/24 02:36:30;;;;;;;;;;;18.20;66.80;;;;;;4935214;29;1667;-73
2023/04/24 02:38:55;;;;;;;;;;;18.20;66.80;;;;;;4949707;29;1430;-74
2023/04/24 02:41:21;;;;;;;;;;;18.20;66.80;;;;;;4933786;29;870;-74
2023/04/24 02:43:46;;;;;;;;;;;18.20;66.80;;;;;;4950462;29;1442;-73
2023/04/24 02:46:12;;;;;;;;;;;18.20;66.90;;;;;;4936417;29;1903;-73
2023/04/24 02:48:37;;;;;;;;;;;18.20;66.90;;;;;;4949630;29;855;-74
2023/04/24 02:51:03;;;;;;;;;;;18.20;66.90;;;;;;4935070;29;765;-73
2023/04/24 02:53:30;;;;;;;;;;;18.20;66.90;;;;;;4934524;29;1227;-72
2023/04/24 02:55:55;;;;;;;;;;;18.20;66.90;;;;;;4949469;29;864;-74
2023/04/24 02:58:21;;;;;;;;;;;18.20;66.90;;;;;;4933327;29;1690;-73
2023/04/24 03:00:47;;;;;;;;;;;18.20;66.90;;;;;;4934543;29;1023;-74
2023/04/24 03:03:12;;;;;;;;;;;18.20;66.90;;;;;;4933248;29;892;-74
2023/04/24 03:05:38;;;;;;;;;;;18.20;66.90;;;;;;4934024;29;1997;-73
2023/04/24 03:08:03;;;;;;;;;;;18.20;66.90;;;;;;4934456;29;869;-74
2023/04/24 03:10:29;;;;;;;;;;;18.20;66.90;;;;;;4932738;29;1174;-76
2023/04/24 03:12:54;;;;;;;;;;;18.20;66.90;;;;;;4932924;29;911;-74
2023/04/24 03:15:20;;;;;;;;;;;18.20;66.90;;;;;;4934727;29;1356;-74
2023/04/24 03:17:45;;;;;;;;;;;18.20;66.90;;;;;;4934144;29;1011;-73
2023/04/24 03:20:11;;;;;;;;;;;18.20;66.90;;;;;;4949322;29;854;-74
2023/04/24 03:22:36;;;;;;;;;;;18.20;66.90;;;;;;4932941;29;868;-74
2023/04/24 03:25:02;;;;;;;;;;;18.20;66.90;;;;;;4933894;29;1957;-74
2023/04/24 03:27:27;;;;;;;;;;;18.20;66.90;;;;;;4949805;29;959;-74
2023/04/24 03:29:56;;;;;;;;;;;18.20;66.90;;;;;;4934140;29;855;-74
2023/04/24 03:32:24;;;;;;;;;;;18.20;66.90;;;;;;4933757;29;1264;-74
2023/04/24 03:34:50;;;;;;;;;;;18.20;67.00;;;;;;4933894;29;1225;-73
2023/04/24 03:37:16;;;;;;;;;;;18.20;67.00;;;;;;4948739;28;1449;-74
2023/04/24 03:39:41;;;;;;;;;;;18.20;67.00;;;;;;4934120;29;840;-73
2023/04/24 03:42:08;;;;;;;;;;;18.20;67.00;;;;;;4933899;29;940;-73
2023/04/24 03:44:34;;;;;;;;;;;18.20;67.00;;;;;;4933082;29;1886;-74
2023/04/24 03:46:59;;;;;;;;;;;18.20;67.00;;;;;;4933821;29;834;-73
2023/04/24 03:49:25;;;;;;;;;;;18.20;67.00;;;;;;4933733;29;1066;-73
2023/04/24 03:51:52;;;;;;;;;;;18.20;67.00;;;;;;4933679;29;873;-73
2023/04/24 03:54:17;;;;;;;;;;;18.20;67.00;;;;;;4948234;28;1379;-73
2023/04/24 03:56:43;;;;;;;;;;;18.20;67.00;;;;;;4933501;29;860;-72
2023/04/24 03:59:08;;;;;;;;;;;18.20;67.00;;;;;;4933337;29;806;-74
2023/04/24 04:01:36;;;;;;;;;;;18.20;67.80;;;;;;4947798;29;952;-74
2023/04/24 04:04:05;;;;;;;;;;;18.20;67.00;;;;;;4946934;29;1966;-73
2023/04/24 04:06:31;;;;;;;;;;;18.20;67.00;;;;;;4947760;29;1178;-72
2023/04/24 04:08:56;;;;;;;;;;;18.20;67.00;;;;;;4933115;29;889;-73
2023/04/24 04:11:22;;;;;;;;;;;18.20;67.00;;;;;;4930282;29;867;-73
2023/04/24 04:13:48;;;;;;;;;;;18.20;66.90;;;;;;4932885;29;1291;-73
2023/04/24 04:16:13;;;;;;;;;;;18.20;66.80;;;;;;4933438;29;805;-72
2023/04/24 04:18:39;;;;;;;;;;;18.30;66.80;;;;;;4947909;29;1074;-73
2023/04/24 04:21:04;;;;;;;;;;;18.30;66.60;;;;;;4931800;29;859;-72
2023/04/24 04:23:30;;;;;;;;;;;18.30;66.50;;;;;;4932553;29;1281;-73
2023/04/24 04:25:55;;;;;;;;;;;18.30;66.40;;;;;;4948067;29;1962;-73
2023/04/24 04:28:21;;;;;;;;;;;18.40;66.40;;;;;;4948377;29;806;-73
2023/04/24 04:30:47;;;;;;;;;;;18.40;66.30;;;;;;4933531;29;834;-73
2023/04/24 04:33:12;;;;;;;;;;;18.50;66.20;;;;;;4949117;29;1404;-73
2023/04/24 04:35:38;;;;;;;;;;;18.40;66.00;;;;;;4934884;29;1283;-72
2023/04/24 04:38:04;;;;;;;;;;;18.50;66.00;;;;;;4932246;29;862;-73
2023/04/24 04:40:30;;;;;;;;;;;18.50;65.90;;;;;;4933328;29;882;-73
2023/04/24 04:42:56;;;;;;;;;;;18.50;65.80;;;;;;4947893;29;1273;-73
2023/04/24 04:45:24;;;;;;;;;;;18.60;65.80;;;;;;4933075;29;1906;-73
2023/04/24 04:47:49;;;;;;;;;;;18.60;65.60;;;;;;4932438;29;877;-73
2023/04/24 04:50:16;;;;;;;;;;;18.70;65.50;;;;;;4933230;29;823;-74
2023/04/24 04:52:41;;;;;;;;;;;18.70;65.40;;;;;;4932638;29;896;-73
2023/04/24 04:55:07;;;;;;;;;;;18.90;65.30;;;;;;4933098;29;1381;-74
2023/04/24 04:57:33;;;;;;;;;;;18.90;65.10;;;;;;4932968;29;850;-74
2023/04/24 04:59:58;;;;;;;;;;;19.00;64.80;;;;;;4947710;29;1063;-73
2023/04/24 05:02:24;;;;;;;;;;;19.10;64.50;;;;;;4932980;29;834;-73
2023/04/24 05:04:49;;;;;;;;;;;19.20;64.20;;;;;;4931217;29;1990;-74
2023/04/24 05:07:15;;;;;;;;;;;19.40;64.10;;;;;;4932841;29;872;-73
2023/04/24 05:09:40;;;;;;;;;;;19.40;63.70;;;;;;4947459;29;880;-74
2023/04/24 05:12:06;;;;;;;;;;;19.50;63.50;;;;;;4931741;29;839;-74
2023/04/24 05:14:31;;;;;;;;;;;19.60;63.20;;;;;;4932678;29;1276;-74
2023/04/24 05:16:57;;;;;;;;;;;19.70;63.00;;;;;;4932779;29;825;-73
2023/04/24 05:19:22;;;;;;;;;;;19.80;62.80;;;;;;4931848;29;868;-73
2023/04/24 05:21:48;;;;;;;;;;;19.80;62.50;;;;;;4932571;29;1106;-73
2023/04/24 05:24:14;;;;;;;;;;;19.90;62.30;;;;;;4931071;29;1970;-74
2023/04/24 05:26:39;;;;;;;;;;;20.00;62.10;;;;;;4932713;29;840;-74
2023/04/24 05:29:05;;;;;;;;;;;20.00;61.90;;;;;;4932631;29;862;-73
2023/04/24 05:31:31;;;;;;;;;;;20.10;61.80;;;;;;4932773;29;838;-73
2023/04/24 05:33:56;;;;;;;;;;;20.10;61.70;;;;;;4949878;28;1370;-73
2023/04/24 05:36:21;;;;;;;;;;;20.10;61.50;;;;;;4932263;29;1916;-72
2023/04/24 05:38:47;;;;;;;;;;;20.20;61.40;;;;;;4935278;29;2046;-72
2023/04/24 05:41:12;;;;;;;;;;;20.20;61.30;;;;;;4935683;29;1363;-72
2023/04/24 05:43:38;;;;;;;;;;;20.20;61.20;;;;;;4935919;29;1759;-72
2023/04/24 05:46:03;;;;;;;;;;;20.20;61.10;;;;;;4936474;29;1964;-72
2023/04/24 05:48:29;;;;;;;;;;;20.30;61.10;;;;;;4936942;29;782;-72
2023/04/24 05:50:54;;;;;;;;;;;20.30;61.00;;;;;;4936492;29;971;-72
2023/04/24 05:53:20;;;;;;;;;;;20.30;60.90;;;;;;4950367;29;1248;-73
2023/04/24 05:55:46;;;;;;;;;;;20.40;60.90;;;;;;4936201;29;844;-72
2023/04/24 05:58:12;;;;;;;;;;;20.40;60.90;;;;;;4951236;29;1169;-71
2023/04/24 06:00:39;;;;;;;;;;;20.40;60.80;;;;;;4937614;29;868;-75
2023/04/24 06:03:05;;;;;;;;;;;20.40;60.70;;;;;;4952574;28;1359;-75
2023/04/24 06:05:30;;;;;;;;;;;20.50;60.70;;;;;;4936289;29;1918;-74
2023/04/24 06:07:55;;;;;;;;;;;20.50;60.70;;;;;;4937510;29;892;-75
2023/04/24 06:10:21;;;;;;;;;;;20.50;60.60;;;;;;4937717;29;1055;-76
2023/04/24 06:12:46;;;;;;;;;;;20.50;60.60;;;;;;4936778;29;885;-74
2023/04/24 06:15:12;;;;;;;;;;;20.50;60.50;;;;;;4951575;28;1378;-75
2023/04/24 06:17:38;;;;;;;;;;;20.60;60.60;;;;;;4936592;29;806;-72
2023/04/24 06:20:05;;;;;;;;;;;20.60;60.50;;;;;;4936554;29;837;-74
2023/04/24 06:22:30;;;;;;;;;;;20.60;60.50;;;;;;4934652;29;868;-74
2023/04/24 06:24:56;;;;;;;;;;;20.60;60.40;;;;;;4938007;29;1977;-74
2023/04/24 06:27:21;;;;;;;;;;;20.60;60.40;;;;;;4935995;29;1015;-74
2023/04/24 06:29:54;;;;;;;;;;;20.60;60.30;;;;;;4935473;29;1604;-73
2023/04/24 06:32:19;;;;;;;;;;;20.60;60.30;;;;;;4935185;29;1356;-74
2023/04/24 06:34:45;;;;;;;;;;;20.70;60.40;;;;;;4934580;29;1429;-74
2023/04/24 06:37:10;;;;;;;;;;;20.70;60.40;;;;;;4934108;29;901;-74
2023/04/24 06:39:36;;;;;;;;;;;20.70;60.30;;;;;;4949600;29;801;-74
2023/04/24 06:42:01;;;;;;;;;;;20.70;60.30;;;;;;4949703;29;1150;-74
2023/04/24 06:44:27;;;;;;;;;;;20.70;60.30;;;;;;4933826;29;2014;-73
2023/04/24 06:46:53;;;;;;;;;;;20.70;60.30;;;;;;4950079;29;824;-74
2023/04/24 06:49:18;;;;;;;;;;;20.70;60.20;;;;;;4934532;29;873;-74
2023/04/24 06:51:43;;;;;;;;;;;20.80;60.30;;;;;;4950470;28;1230;-73
2023/04/24 06:54:09;;;;;;;;;;;20.80;60.20;;;;;;4934295;29;1748;-74
2023/04/24 06:56:34;;;;;;;;;;;20.80;60.20;;;;;;4934584;29;1405;-73
2023/04/24 06:59:00;;;;;;;;;;;20.80;60.20;;;;;;4951242;28;1433;-74
2023/04/24 07:01:25;;;;;;;;;;;20.80;60.10;;;;;;4935025;29;1335;-75
2023/04/24 07:03:52;;;;;;;;;;;20.80;60.10;;;;;;4934947;29;1304;-75
2023/04/24 07:06:18;;;;;;;;;;;20.80;60.10;;;;;;4935194;29;1974;-76
2023/04/24 07:08:43;;;;;;;;;;;20.80;60.10;;;;;;4935436;29;1361;-76
2023/04/24 07:11:09;;;;;;;;;;;20.80;60.70;;;;;;4935615;29;1407;-75
2023/04/24 07:13:35;;;;;;;;;;;20.80;60.70;;;;;;4953499;28;1441;-74
2023/04/24 07:16:00;;;;;;;;;;;20.90;60.80;;;;;;4936567;29;1516;-75
2023/04/24 07:18:26;;;;;;;;;;;20.80;61.40;;;;;;4935445;29;1356;-76
2023/04/24 07:20:51;;;;;;;;;;;20.80;61.60;;;;;;4934873;29;1417;-75
2023/04/24 07:23:17;;;;;;;;;;;20.80;61.80;;;;;;4934820;29;1421;-74
2023/04/24 07:25:43;;;;;;;;;;;20.80;61.90;;;;;;4933866;29;1899;-76
2023/04/24 07:28:08;;;;;;;;;;;20.80;62.00;;;;;;4933724;29;1591;-74
2023/04/24 07:30:33;;;;;;;;;;;20.80;62.70;;;;;;4934771;29;932;-75
2023/04/24 07:32:59;;;;;;;;;;;20.80;62.80;;;;;;4949330;29;1462;-75
2023/04/24 07:35:25;;;;;;;;;;;20.70;62.70;;;;;;4949607;29;1498;-76
2023/04/24 07:37:51;;;;;;;;;;;20.70;62.60;;;;;;4949914;29;896;-76
2023/04/24 07:40:16;;;;;;;;;;;20.70;62.70;;;;;;4933027;29;963;-75
2023/04/24 07:42:43;;;;;;;;;;;20.70;63.20;;;;;;4932466;29;987;-75
2023/04/24 07:45:09;;;;;;;;;;;20.60;63.40;;;;;;4933507;29;1947;-75
2023/04/24 07:47:34;;;;;;;;;;;20.60;63.40;;;;;;4933843;29;1018;-75
2023/04/24 07:50:00;;;;;;;;;;;20.60;63.70;;;;;;4948337;29;897;-72
2023/04/24 07:52:25;;;;;;;;;;;20.60;64.00;;;;;;4933627;29;931;-73
2023/04/24 07:54:58;;;;;;;;;;;20.60;64.40;;;;;;4933424;29;1814;-73
2023/04/24 07:57:24;;;;;;;;;;;20.60;64.50;;;;;;4932852;29;884;-72
2023/04/24 07:59:49;;;;;;;;;;;20.60;64.70;;;;;;4933420;29;813;-72
2023/04/24 08:02:15;;;;;;;;;;;20.60;65.00;;;;;;4948384;29;823;-72
2023/04/24 08:04:40;;;;;;;;;;;20.50;65.30;;;;;;4932631;29;1907;-72
2023/04/24 08:07:06;;;;;;;;;;;20.50;65.70;;;;;;4933832;29;1043;-72
2023/04/24 08:09:31;;;;;;;;;;;20.50;66.00;;;;;;4932578;29;1971;-73
2023/04/24 08:11:57;;;;;;;;;;;20.50;66.20;;;;;;4934468;29;1259;-73
2023/04/24 08:14:22;;;;;;;;;;;20.50;66.60;;;;;;4933781;29;1308;-73
2023/04/24 08:16:48;;;;;;;;;;;20.50;66.90;;;;;;4933279;29;849;-73
2023/04/24 08:19:13;;;;;;;;;;;20.40;67.10;;;;;;4933274;29;880;-73
2023/04/24 08:21:39;;;;;;;;;;;20.40;67.60;;;;;;4948216;29;937;-73
2023/04/24 08:24:07;;;;;;;;;;;20.40;67.80;;;;;;4933132;29;1354;-73
2023/04/24 08:26:32;;;;;;;;;;;20.40;68.80;;;;;;4932320;29;1954;-73
2023/04/24 08:28:58;;;;;;;;;;;20.40;68.90;;;;;;4933237;29;904;-73
2023/04/24 08:31:24;;;;;;;;;;;20.40;69.00;;;;;;4932939;29;883;-73
2023/04/24 08:33:50;;;;;;;;;;;20.30;68.70;;;;;;4932608;29;1499;-73
2023/04/24 08:36:15;;;;;;;;;;;20.30;68.70;;;;;;4932028;29;878;-73
2023/04/24 08:38:41;;;;;;;;;;;20.30;68.80;;;;;;4947751;29;948;-73
2023/04/24 08:41:07;;;;;;;;;;;20.30;68.60;;;;;;4933274;29;809;-73
2023/04/24 08:43:32;;;;;;;;;;;20.30;68.70;;;;;;4932719;29;1394;-73
2023/04/24 08:45:59;;;;;;;;;;;20.20;68.70;;;;;;4932929;29;1934;-73
2023/04/24 08:48:24;;;;;;;;;;;20.20;68.70;;;;;;4947608;29;1004;-73
2023/04/24 08:50:50;;;;;;;;;;;20.20;68.70;;;;;;4931909;29;1646;-73
2023/04/24 08:53:15;;;;;;;;;;;20.20;68.70;;;;;;4932740;29;880;-73
2023/04/24 08:55:41;;;;;;;;;;;20.20;68.70;;;;;;4933226;29;1134;-72
2023/04/24 08:58:06;;;;;;;;;;;20.20;68.80;;;;;;4947578;29;892;-73
2023/04/24 09:00:32;;;;;;;;;;;20.20;68.80;;;;;;4921647;29;1619;-73
2023/04/24 09:03:00;;;;;;;;;;;20.20;69.10;;;;;;4947248;29;917;-72
2023/04/24 09:05:25;;;;;;;;;;;20.20;68.80;;;;;;4932686;29;1957;-73
2023/04/24 09:07:54;;;;;;;;;;;20.20;68.90;;;;;;4932319;29;1048;-72
2023/04/24 09:10:21;;;;;;;;;;;20.20;68.80;;;;;;4936639;29;826;-73
2023/04/24 09:12:46;;;;;;;;;;;20.10;68.80;;;;;;4951073;29;847;-73
2023/04/24 09:15:12;;;;;;;;;;;20.10;69.00;;;;;;4936400;29;1282;-73
2023/04/24 09:17:37;;;;;;;;;;;20.10;69.00;;;;;;4936621;29;888;-72
2023/04/24 09:20:04;;;;;;;;;;;20.10;69.10;;;;;;4935919;29;1209;-73
2023/04/24 09:22:32;;;;;;;;;;;20.10;69.20;;;;;;4936581;29;1293;-73
2023/04/24 09:25:05;;;;;;;;;;;20.10;69.60;;;;;;4951349;29;1960;-73
2023/04/24 09:27:31;;;;;;;;;;;20.10;69.80;;;;;;4936557;29;821;-73
2023/04/24 09:29:56;;;;;;;;;;;20.10;70.10;;;;;;4951081;29;1417;-73
2023/04/24 09:32:22;;;;;;;;;;;20.10;70.40;;;;;;4935147;29;900;-73
2023/04/24 09:34:48;;;;;;;;;;;20.10;70.60;;;;;;4936863;29;1711;-73
2023/04/24 09:37:29;;;;;;;;;;;20.10;70.40;;;;;;4936005;29;794;-74
2023/04/24 09:40:27;;;;;;;;;;;20.10;70.60;;;;;;4950552;29;877;-74
2023/04/24 09:42:53;;;;;;;;;;;20.10;70.70;;;;;;4918834;29;1268;-73
2023/04/24 09:45:19;;;;;;;;;;;20.10;70.80;;;;;;4935729;29;1981;-73
2023/04/24 09:47:44;;;;;;;;;;;20.10;70.60;;;;;;4935996;29;869;-72
2023/04/24 09:50:14;;;;;;;;;;;20.10;70.50;;;;;;4936052;29;845;-73
2023/04/24 09:52:40;;;;;;;;;;;20.10;70.40;;;;;;4935799;29;915;-73
2023/04/24 09:55:10;;;;;;;;;;;20.00;70.30;;;;;;4934744;29;1343;-73
2023/04/24 09:57:36;;;;;;;;;;;20.00;70.20;;;;;;4935593;29;1833;-74
2023/04/24 10:00:01;;;;;;;;;;;20.10;70.20;;;;;;4935753;29;1453;-74
2023/04/24 10:02:26;;;;;;;;;;;20.00;70.40;;;;;;4936389;29;2081;-73
2023/04/24 10:04:56;;;;;;;;;;;20.00;70.20;;;;;;4949860;29;2090;-74
2023/04/24 10:07:21;;;;;;;;;;;20.00;70.30;;;;;;4935931;29;1375;-75
2023/04/24 10:09:47;;;;;;;;;;;20.00;70.20;;;;;;4934488;29;1409;-75
2023/04/24 10:12:12;;;;;;;;;;;20.00;70.20;;;;;;4935404;29;1280;-74
2023/04/24 10:14:38;;;;;;;;;;;20.00;70.20;;;;;;4933882;29;1355;-74
2023/04/24 10:17:03;;;;;;;;;;;20.00;70.30;;;;;;4934579;29;1258;-74
2023/04/24 10:19:29;;;;;;;;;;;20.00;70.20;;;;;;4933343;29;1392;-74
2023/04/24 10:21:55;;;;;;;;;;;20.00;70.20;;;;;;4934451;29;1438;-73
2023/04/24 10:24:21;;;;;;;;;;;20.00;70.20;;;;;;4950100;29;1903;-74
2023/04/24 10:26:48;;;;;;;;;;;19.90;70.10;;;;;;4935796;29;839;-72
2023/04/24 10:29:15;;;;;;;;;;;19.90;70.20;;;;;;4935989;29;847;-73
2023/04/24 10:31:41;;;;;;;;;;;19.90;70.20;;;;;;4950203;29;825;-72
2023/04/24 10:34:06;;;;;;;;;;;19.90;70.20;;;;;;4935532;29;2088;-73
2023/04/24 10:36:36;;;;;;;;;;;19.90;70.20;;;;;;4935191;29;1292;-71
2023/04/24 10:39:02;;;;;;;;;;;19.90;70.40;;;;;;4934139;29;1364;-73
2023/04/24 10:41:27;;;;;;;;;;;19.90;70.50;;;;;;4933993;29;845;-73
2023/04/24 10:44:13;;;;;;;;;;;19.90;70.50;;;;;;4933379;29;1338;-71
2023/04/24 10:46:39;;;;;;;;;;;19.90;70.60;;;;;;4934827;29;1962;-72
2023/04/24 10:49:06;;;;;;;;;;;19.90;70.40;;;;;;4934970;29;979;-71
2023/04/24 10:51:52;;;;;;;;;;;20.00;71.10;;;;;;4934729;29;862;-69
2023/04/24 10:54:27;;;;;;;;;;;20.00;70.10;;;;;;4931635;29;1566;-72
2023/04/24 10:56:53;;;;;;;;;;;20.10;70.00;;;;;;4934722;29;1504;-71
2023/04/24 10:59:25;;;;;;;;;;;20.10;69.50;;;;;;4934870;29;1290;-71
2023/04/24 11:01:55;;;;;;;;;;;20.00;69.40;;;;;;4948739;29;907;-70
2023/04/24 11:04:28;;;;;;;;;;;20.00;69.40;;;;;;4934244;29;1918;-71
2023/04/24 11:06:54;;;;;;;;;;;20.00;69.50;;;;;;4948843;29;885;-70
2023/04/24 11:09:19;;;;;;;;;;;19.90;69.60;;;;;;4933620;29;980;-70
2023/04/24 11:11:45;;;;;;;;;;;19.90;69.70;;;;;;4949177;29;1251;-70
2023/04/24 11:14:11;;;;;;;;;;;19.90;69.90;;;;;;4934188;29;1359;-70
2023/04/24 11:16:51;;;;;;;;;;;19.90;70.00;;;;;;4933310;29;1333;-71
2023/04/24 11:19:16;;;;;;;;;;;19.90;70.00;;;;;;4948988;29;1260;-70
2023/04/24 11:21:48;;;;;;;;;;;19.80;70.10;;;;;;4934276;29;935;-71
2023/04/24 11:24:40;;;;;;;;;;;19.80;70.10;;;;;;4948092;29;1343;-70
2023/04/24 11:27:07;;;;;;;;;;;19.80;70.20;;;;;;4940397;29;1408;-70
2023/04/24 11:29:39;;;;;;;;;;;19.80;70.20;;;;;;4932893;29;879;-70
2023/04/24 11:32:24;;;;;;;;;;;19.80;70.30;;;;;;4932712;29;847;-70
2023/04/24 11:34:50;;;;;;;;;;;19.80;70.40;;;;;;4948363;28;1537;-70
2023/04/24 11:37:15;;;;;;;;;;;19.80;70.40;;;;;;4934064;29;1038;-70
2023/04/24 11:39:41;;;;;;;;;;;19.70;70.40;;;;;;4933699;29;821;-70
2023/04/24 11:42:07;;;;;;;;;;;19.70;70.60;;;;;;4934256;29;1248;-70
2023/04/24 11:44:39;;;;;;;;;;;19.70;70.50;;;;;;4932375;29;1939;-71
2023/04/24 11:47:05;;;;;;;;;;;19.70;70.70;;;;;;4934364;29;819;-71
2023/04/24 11:49:31;;;;;;;;;;;19.70;70.90;;;;;;4934997;29;826;-71
2023/04/24 11:51:56;;;;;;;;;;;19.70;70.80;;;;;;4933132;29;1051;-70
2023/04/24 11:54:22;;;;;;;;;;;19.70;70.90;;;;;;4932507;29;1332;-70
2023/04/24 11:56:47;;;;;;;;;;;19.70;70.90;;;;;;4933837;29;889;-70
2023/04/24 11:59:13;;;;;;;;;;;19.70;70.80;;;;;;4933519;29;888;-70
2023/04/24 12:01:45;;;;;;;;;;;19.70;70.80;;;;;;4932358;29;1334;-71
2023/04/24 12:04:10;;;;;;;;;;;19.70;71.10;;;;;;4933116;29;1363;-71
2023/04/24 12:06:36;;;;;;;;;;;19.70;70.70;;;;;;4948333;29;1906;-72
2023/04/24 12:09:02;;;;;;;;;;;19.60;69.40;;;;;;4933668;29;939;-72
2023/04/24 12:11:27;;;;;;;;;;;19.60;68.40;;;;;;4932174;29;1459;-72
2023/04/24 12:13:53;;;;;;;;;;;19.60;68.10;;;;;;4932795;29;1288;-72
2023/04/24 12:16:18;;;;;;;;;;;19.50;67.50;;;;;;4932942;29;1347;-72
2023/04/24 12:18:45;;;;;;;;;;;19.50;67.20;;;;;;4947875;29;854;-72
2023/04/24 12:21:14;;;;;;;;;;;19.50;67.10;;;;;;4948092;28;1435;-72
2023/04/24 12:23:42;;;;;;;;;;;19.40;66.70;;;;;;4933021;29;1293;-72
2023/04/24 12:26:19;;;;;;;;;;;19.40;66.70;;;;;;4932983;29;1956;-72
2023/04/24 12:28:46;;;;;;;;;;;19.40;66.60;;;;;;4933998;29;1631;-72
2023/04/24 12:31:11;;;;;;;;;;;19.40;65.60;;;;;;4950703;28;1443;-74
2023/04/24 12:33:39;;;;;;;;;;;19.30;64.90;;;;;;4931608;29;1496;-73
2023/04/24 12:36:06;;;;;;;;;;;19.30;65.00;;;;;;4932958;29;1424;-74
2023/04/24 12:38:39;;;;;;;;;;;19.30;64.90;;;;;;4932447;29;837;-71
2023/04/24 12:41:05;;;;;;;;;;;19.30;64.20;;;;;;4932025;29;884;-71
2023/04/24 12:43:31;;;;;;;;;;;19.20;63.30;;;;;;4930812;29;1310;-71
2023/04/24 12:45:57;;;;;;;;;;;19.20;62.30;;;;;;4932518;29;1914;-71
2023/04/24 12:48:22;;;;;;;;;;;19.20;61.30;;;;;;4933396;29;833;-73
2023/04/24 12:50:48;;;;;;;;;;;19.20;59.20;;;;;;4933768;29;770;-72
2023/04/24 12:53:13;;;;;;;;;;;19.20;57.20;;;;;;4949145;29;1042;-72
2023/04/24 12:55:39;;;;;;;;;;;19.10;56.30;;;;;;4933826;29;1268;-72
2023/04/24 12:58:05;;;;;;;;;;;19.10;55.60;;;;;;4933058;29;797;-71
2023/04/24 13:00:30;;;;;;;;;;;19.10;56.00;;;;;;4933006;29;912;-71
2023/04/24 13:02:56;;;;;;;;;;;19.00;55.60;;;;;;4933097;29;928;-71
2023/04/24 13:05:21;;;;;;;;;;;19.00;57.50;;;;;;4947486;29;1915;-72
2023/04/24 13:07:47;;;;;;;;;;;19.00;58.00;;;;;;4933080;29;773;-72
2023/04/24 13:10:13;;;;;;;;;;;19.00;58.60;;;;;;4932687;29;1239;-72
2023/04/24 13:12:38;;;;;;;;;;;19.00;59.00;;;;;;4932550;29;909;-72
2023/04/24 13:15:04;;;;;;;;;;;19.00;58.30;;;;;;4932402;29;1370;-70
2023/04/24 13:17:29;;;;;;;;;;;19.00;58.40;;;;;;4933238;29;879;-72
2023/04/24 13:19:55;;;;;;;;;;;19.00;58.80;;;;;;4933028;29;892;-71
2023/04/24 13:22:20;;;;;;;;;;;19.00;59.50;;;;;;4932929;29;1000;-72
2023/04/24 13:24:48;;;;;;;;;;;19.00;58.40;;;;;;4932364;29;1915;-72
2023/04/24 13:27:14;;;;;;;;;;;19.00;57.90;;;;;;4947198;28;1319;-71
2023/04/24 13:29:39;;;;;;;;;;;19.00;59.00;;;;;;4933528;29;810;-72
2023/04/24 13:32:05;;;;;;;;;;;18.90;58.70;;;;;;4933874;29;808;-72
2023/04/24 13:34:30;;;;;;;;;;;18.90;59.20;;;;;;4949875;28;1515;-72
2023/04/24 13:36:56;;;;;;;;;;;18.90;59.20;;;;;;4932347;29;841;-71
2023/04/24 13:39:22;;;;;;;;;;;18.90;58.40;;;;;;4934192;29;880;-72
2023/04/24 13:41:48;;;;;;;;;;;18.90;57.90;;;;;;4947949;29;975;-71
2023/04/24 13:44:17;;;;;;;;;;;18.90;55.50;;;;;;4932629;29;1344;-71
2023/04/24 13:46:44;;;;;;;;;;;18.90;55.30;;;;;;4947466;29;1930;-71
2023/04/24 13:49:09;;;;;;;;;;;18.90;56.70;;;;;;4932858;29;841;-72
2023/04/24 13:51:35;;;;;;;;;;;18.90;56.10;;;;;;4933142;29;834;-72
2023/04/24 13:54:00;;;;;;;;;;;18.90;56.30;;;;;;4932334;29;1324;-71
2023/04/24 13:56:26;;;;;;;;;;;18.80;56.50;;;;;;4935917;29;823;-71
2023/04/24 13:58:51;;;;;;;;;;;18.90;57.70;;;;;;4936075;29;871;-71
2023/04/24 14:01:17;;;;;;;;;;;18.80;56.00;;;;;;4935615;29;1412;-72
2023/04/24 14:03:45;;;;;;;;;;;18.80;55.80;;;;;;4935402;29;1344;-72
2023/04/24 14:06:10;;;;;;;;;;;18.80;55.30;;;;;;4935935;29;1904;-72
2023/04/24 14:08:36;;;;;;;;;;;18.80;55.60;;;;;;4935372;29;880;-72
2023/04/24 14:11:02;;;;;;;;;;;18.80;55.90;;;;;;4935638;29;841;-72
2023/04/24 14:13:28;;;;;;;;;;;18.80;54.10;;;;;;4935053;29;1278;-73
2023/04/24 14:15:53;;;;;;;;;;;18.80;54.80;;;;;;4950623;29;980;-72
2023/04/24 14:18:19;;;;;;;;;;;18.70;54.70;;;;;;4935557;29;797;-72
2023/04/24 14:20:44;;;;;;;;;;;18.70;54.90;;;;;;4934998;29;1275;-72
2023/04/24 14:23:10;;;;;;;;;;;18.70;53.00;;;;;;4935646;29;829;-73
2023/04/24 14:25:35;;;;;;;;;;;18.70;52.40;;;;;;4935446;29;1906;-72
2023/04/24 14:28:00;;;;;;;;;;;18.80;53.30;;;;;;4935643;29;1069;-72
2023/04/24 14:30:26;;;;;;;;;;;18.80;53.50;;;;;;4935328;29;815;-72